Time;durP1;ratioP1;P1;durP2;ratioP2;P2;SDS_P1;SDS_P2;PMS_P1;PMS_P2;Temp;Humidity;BMP_temperature;BMP_pressure;BME280_temperature;BME280_humidity;BME280_pressure;Samples;Min_cycle;Max_cycle;Signal;HPM_P1;HPM_P2
2023/05/28 00:01:46;;;;;;;6.67;5.10;;;21.20;44.30;;;;;;5033090;28;20417;-47
2023/05/28 00:04:12;;;;;;;5.80;5.20;;;21.20;44.40;;;;;;5032728;28;20471;-48
2023/05/28 00:06:37;;;;;;;6.80;4.77;;;21.10;44.50;;;;;;5043116;28;20495;-49
2023/05/28 00:09:03;;;;;;;7.03;5.87;;;21.00;44.70;;;;;;5047916;28;20197;-49
2023/05/28 00:11:29;;;;;;;7.97;5.57;;;20.90;44.70;;;;;;5031348;28;20668;-49
2023/05/28 00:13:54;;;;;;;8.20;5.63;;;20.90;44.70;;;;;;5032856;28;20225;-48
2023/05/28 00:16:20;;;;;;;8.30;5.33;;;20.90;44.80;;;;;;5032835;28;20204;-50
2023/05/28 00:18:46;;;;;;;7.67;5.90;;;20.90;44.80;;;;;;5033067;28;20281;-48
2023/05/28 00:21:11;;;;;;;7.73;6.53;;;20.80;45.00;;;;;;5032817;28;20197;-50
2023/05/28 00:23:37;;;;;;;7.37;5.30;;;20.70;45.20;;;;;;5032856;28;20490;-48
2023/05/28 00:26:03;;;;;;;8.33;5.70;;;20.70;45.40;;;;;;5032401;28;20208;-48
2023/05/28 00:28:28;;;;;;;7.70;5.57;;;20.60;45.50;;;;;;5032680;28;20635;-49
2023/05/28 00:30:54;;;;;;;12.20;6.60;;;20.60;45.60;;;;;;5032489;28;20193;-48
2023/05/28 00:33:20;;;;;;;7.00;6.40;;;20.50;45.60;;;;;;5032657;28;20197;-48
2023/05/28 00:35:46;;;;;;;8.63;6.17;;;20.40;45.70;;;;;;5032244;28;20561;-49
2023/05/28 00:38:11;;;;;;;7.57;5.83;;;20.40;45.90;;;;;;5031019;28;20531;-48
2023/05/28 00:40:41;;;;;;;9.80;6.00;;;20.30;46.00;;;;;;5032747;28;20284;-48
2023/05/28 00:43:07;;;;;;;7.87;5.67;;;20.30;46.10;;;;;;5032372;28;20284;-49
2023/05/28 00:45:32;;;;;;;10.10;6.50;;;20.20;46.30;;;;;;5032152;28;20559;-49
2023/05/28 00:47:58;;;;;;;9.90;7.33;;;20.20;46.40;;;;;;5032368;28;20197;-48
2023/05/28 00:50:25;;;;;;;6.43;5.60;;;20.10;46.30;;;;;;5032480;28;20637;-49
2023/05/28 00:52:52;;;;;;;9.57;6.40;;;20.10;46.40;;;;;;5036571;28;20195;-48
2023/05/28 00:55:18;;;;;;;8.17;6.30;;;20.00;46.40;;;;;;5052159;28;20490;-50
2023/05/28 00:57:46;;;;;;;10.17;6.60;;;20.00;46.60;;;;;;5033477;28;20443;-47
2023/05/28 01:00:13;;;;;;;6.87;5.70;;;20.00;46.70;;;;;;5032170;28;20213;-48
2023/05/28 01:02:39;;;;;;;10.30;5.97;;;19.90;46.70;;;;;;5031879;28;20436;-48
2023/05/28 01:05:05;;;;;;;7.20;5.87;;;19.90;46.70;;;;;;5030387;28;20962;-49
2023/05/28 01:07:32;;;;;;;8.03;5.50;;;19.80;46.80;;;;;;5050443;28;20910;-48
2023/05/28 01:09:58;;;;;;;7.60;5.80;;;19.70;46.90;;;;;;5039914;28;20236;-48
2023/05/28 01:12:25;;;;;;;7.50;6.33;;;19.70;47.00;;;;;;5031908;28;20420;-50
2023/05/28 01:14:52;;;;;;;8.63;6.27;;;19.70;47.10;;;;;;5031920;28;20228;-48
2023/05/28 01:17:18;;;;;;;9.73;6.10;;;19.70;47.20;;;;;;5031087;28;20439;-48
2023/05/28 01:19:46;;;;;;;8.37;6.40;;;19.60;47.30;;;;;;5031802;28;20432;-47
2023/05/28 01:22:15;;;;;;;9.13;6.10;;;19.60;47.50;;;;;;5031644;28;20443;-47
2023/05/28 01:24:41;;;;;;;9.43;5.57;;;19.50;47.70;;;;;;5031762;28;20436;-47
2023/05/28 01:27:07;;;;;;;9.47;6.80;;;19.40;48.00;;;;;;5038075;28;20950;-50
2023/05/28 01:29:33;;;;;;;10.63;6.77;;;19.10;48.40;;;;;;5051769;28;20518;-51
2023/05/28 01:31:58;;;;;;;11.93;6.40;;;19.10;48.70;;;;;;5050114;28;20511;-47
2023/05/28 01:34:24;;;;;;;8.40;6.40;;;19.10;48.40;;;;;;5051549;28;20244;-48
2023/05/28 01:37:03;;;;;;;10.90;6.97;;;19.10;48.10;;;;;;5051290;28;20540;-48
2023/05/28 01:39:36;;;;;;;8.13;6.43;;;19.10;48.80;;;;;;5051385;28;20656;-47
2023/05/28 01:42:03;;;;;;;9.33;6.50;;;19.10;48.20;;;;;;5051619;28;20439;-49
2023/05/28 01:44:30;;;;;;;8.77;7.07;;;19.10;48.30;;;;;;5051324;28;20430;-48
2023/05/28 01:46:56;;;;;;;10.03;6.40;;;19.10;48.30;;;;;;5050982;28;20859;-48
2023/05/28 01:49:22;;;;;;;8.50;5.63;;;19.10;48.30;;;;;;5051486;28;20427;-49
2023/05/28 01:51:49;;;;;;;6.80;5.10;;;19.00;48.20;;;;;;5051255;28;20430;-48
2023/05/28 01:54:15;;;;;;;10.03;5.60;;;19.00;48.10;;;;;;5035489;28;20475;-47
2023/05/28 01:56:41;;;;;;;10.03;6.23;;;19.10;48.10;;;;;;5029798;28;20543;-53
2023/05/28 01:59:06;;;;;;;9.60;5.30;;;19.00;48.10;;;;;;5044372;28;20199;-52
2023/05/28 02:01:33;;;;;;;7.80;5.80;;;19.00;48.20;;;;;;5031279;28;20668;-51
2023/05/28 02:04:00;;;;;;;7.50;5.87;;;19.00;48.40;;;;;;5031254;28;20193;-52
2023/05/28 02:06:29;;;;;;;11.60;6.37;;;18.90;48.20;;;;;;5040587;28;20474;-51
2023/05/28 02:08:55;;;;;;;8.73;5.57;;;18.90;48.40;;;;;;5047344;28;20915;-52
2023/05/28 02:11:21;;;;;;;8.77;5.40;;;18.90;48.50;;;;;;5031340;28;20489;-52
2023/05/28 02:13:48;;;;;;;7.13;6.40;;;18.90;48.50;;;;;;5030982;28;20252;-51
2023/05/28 02:16:17;;;;;;;9.87;6.43;;;18.80;48.50;;;;;;5030736;28;20427;-51
2023/05/28 02:18:47;;;;;;;6.10;5.50;;;18.80;48.60;;;;;;5031107;28;20432;-52
2023/05/28 02:21:13;;;;;;;7.23;5.93;;;18.80;48.50;;;;;;5031088;28;20436;-50
2023/05/28 02:23:49;;;;;;;8.13;6.33;;;18.70;48.50;;;;;;5029643;28;20436;-52
2023/05/28 02:26:15;;;;;;;9.50;6.40;;;18.70;48.90;;;;;;5030963;28;20789;-52
2023/05/28 02:28:44;;;;;;;8.77;5.77;;;18.70;48.90;;;;;;5032571;28;20435;-52
2023/05/28 02:31:10;;;;;;;7.97;5.70;;;18.60;48.90;;;;;;5034808;28;20439;-50
2023/05/28 02:33:40;;;;;;;7.93;5.70;;;18.30;49.30;;;;;;5034776;28;20494;-52
2023/05/28 02:36:06;;;;;;;6.63;5.30;;;18.30;49.20;;;;;;5034495;28;20523;-50
2023/05/28 02:38:32;;;;;;;6.70;5.20;;;18.30;49.00;;;;;;5034880;28;20526;-52
2023/05/28 02:40:57;;;;;;;7.90;5.73;;;18.30;48.70;;;;;;5034689;28;20605;-51
2023/05/28 02:43:23;;;;;;;10.27;5.17;;;18.40;48.70;;;;;;5034825;28;20420;-52
2023/05/28 02:45:49;;;;;;;8.17;6.10;;;18.40;48.70;;;;;;5034533;28;20189;-50
2023/05/28 02:48:14;;;;;;;6.50;5.77;;;18.40;48.70;;;;;;5041196;28;20200;-51
2023/05/28 02:50:40;;;;;;;7.70;5.23;;;18.30;48.70;;;;;;5052979;28;20664;-52
2023/05/28 02:53:05;;;;;;;7.83;5.80;;;18.30;48.70;;;;;;5048432;28;20185;-49
2023/05/28 02:55:31;;;;;;;8.63;5.47;;;18.20;48.60;;;;;;5034003;28;20352;-50
2023/05/28 02:57:56;;;;;;;8.13;5.30;;;18.20;48.70;;;;;;5034306;28;20193;-52
2023/05/28 03:00:22;;;;;;;7.70;5.33;;;18.20;48.60;;;;;;5034437;28;20200;-54
2023/05/28 03:02:48;;;;;;;8.97;6.70;;;18.20;48.60;;;;;;5034259;28;20198;-52
2023/05/28 03:05:14;;;;;;;7.97;5.23;;;18.20;48.70;;;;;;5033849;28;20327;-48
2023/05/28 03:07:40;;;;;;;6.80;4.93;;;18.10;49.00;;;;;;5054268;28;20184;-50
2023/05/28 03:10:07;;;;;;;6.80;4.50;;;18.00;49.30;;;;;;5040380;28;20420;-50
2023/05/28 03:12:32;;;;;;;7.83;5.50;;;18.00;49.20;;;;;;5034152;28;20208;-48
2023/05/28 03:14:58;;;;;;;11.70;5.50;;;17.90;49.60;;;;;;5033964;28;20459;-49
2023/05/28 03:17:23;;;;;;;7.23;4.63;;;17.90;49.70;;;;;;5032006;28;20197;-51
2023/05/28 03:19:49;;;;;;;6.43;4.70;;;17.90;49.40;;;;;;5034227;28;20229;-52
2023/05/28 03:22:16;;;;;;;8.13;5.40;;;17.90;49.30;;;;;;5033888;28;20560;-49
2023/05/28 03:24:42;;;;;;;10.47;6.27;;;17.90;49.30;;;;;;5033744;28;20200;-52
2023/05/28 03:27:07;;;;;;;7.83;4.77;;;17.80;49.30;;;;;;5033631;28;20519;-52
2023/05/28 03:29:33;;;;;;;7.83;4.87;;;17.80;49.20;;;;;;5033893;28;20185;-50
2023/05/28 03:31:58;;;;;;;6.10;5.37;;;17.80;49.70;;;;;;5033930;28;20189;-51
2023/05/28 03:34:24;;;;;;;8.83;5.87;;;17.80;49.20;;;;;;5033831;28;20278;-49
2023/05/28 03:36:50;;;;;;;6.40;5.60;;;17.80;49.30;;;;;;5033558;28;20199;-50
2023/05/28 03:39:16;;;;;;;7.60;5.77;;;17.80;49.40;;;;;;5033663;28;20201;-48
2023/05/28 03:41:44;;;;;;;6.53;5.43;;;17.80;49.50;;;;;;5033537;28;20519;-51
2023/05/28 03:44:09;;;;;;;9.20;5.23;;;17.80;49.50;;;;;;5032072;28;20992;-47
2023/05/28 03:46:35;;;;;;;7.20;5.10;;;17.70;49.30;;;;;;5033101;28;20429;-51
2023/05/28 03:49:01;;;;;;;6.63;5.23;;;17.70;49.40;;;;;;5033600;28;20272;-49
2023/05/28 03:51:26;;;;;;;6.73;5.50;;;17.70;49.50;;;;;;5033343;28;20292;-50
2023/05/28 03:53:52;;;;;;;7.80;5.77;;;17.60;49.60;;;;;;5046062;28;20737;-47
2023/05/28 03:56:21;;;;;;;8.60;5.80;;;17.60;49.70;;;;;;5046377;28;20228;-50
2023/05/28 03:58:46;;;;;;;7.90;5.07;;;17.50;50.30;;;;;;5033383;28;20246;-51
2023/05/28 04:01:12;;;;;;;5.90;4.73;;;17.20;51.00;;;;;;5033534;28;20424;-52
2023/05/28 04:03:38;;;;;;;10.53;6.53;;;16.90;51.80;;;;;;5033119;28;20676;-51
2023/05/28 04:06:04;;;;;;;6.33;5.10;;;16.80;52.30;;;;;;5039767;28;20462;-47
2023/05/28 04:08:29;;;;;;;9.77;5.57;;;16.90;52.20;;;;;;5052298;28;20723;-51
2023/05/28 04:10:55;;;;;;;8.70;5.70;;;16.90;52.00;;;;;;5031542;28;20671;-50
2023/05/28 04:13:22;;;;;;;7.90;5.13;;;16.90;52.20;;;;;;5032770;28;20568;-50
2023/05/28 04:15:47;;;;;;;8.60;5.37;;;16.70;52.70;;;;;;5032337;28;20193;-49
2023/05/28 04:18:13;;;;;;;10.03;5.70;;;16.70;52.70;;;;;;5032628;28;20431;-51
2023/05/28 04:20:38;;;;;;;9.10;5.57;;;16.90;52.40;;;;;;5032734;28;20230;-51
2023/05/28 04:23:04;;;;;;;5.10;4.60;;;17.00;51.90;;;;;;5032820;28;20211;-49
2023/05/28 04:25:30;;;;;;;8.63;5.50;;;17.10;51.50;;;;;;5032233;28;20205;-47
2023/05/28 04:27:56;;;;;;;5.97;5.17;;;17.20;51.50;;;;;;5032595;28;20293;-47
2023/05/28 04:30:23;;;;;;;6.87;5.10;;;17.20;51.40;;;;;;5039459;28;20207;-51
2023/05/28 04:32:52;;;;;;;7.77;5.53;;;17.30;51.30;;;;;;5052491;28;20431;-47
2023/05/28 04:35:19;;;;;;;9.60;4.83;;;17.20;51.30;;;;;;5051896;28;20540;-46
2023/05/28 04:37:45;;;;;;;7.87;5.13;;;17.10;51.50;;;;;;5050859;28;20459;-51
2023/05/28 04:40:11;;;;;;;7.40;5.90;;;17.10;51.50;;;;;;5052364;28;20462;-48
2023/05/28 04:42:38;;;;;;;8.50;5.73;;;17.20;51.50;;;;;;5052123;28;20469;-48
2023/05/28 04:45:04;;;;;;;11.63;5.93;;;17.10;51.50;;;;;;5051891;28;20415;-49
2023/05/28 04:47:30;;;;;;;5.60;4.93;;;16.90;51.80;;;;;;5052236;28;20426;-50
2023/05/28 04:49:57;;;;;;;7.67;5.80;;;17.10;51.90;;;;;;5052135;28;20430;-49
2023/05/28 04:52:23;;;;;;;6.37;5.17;;;17.10;51.60;;;;;;5051299;28;20232;-53
2023/05/28 04:54:49;;;;;;;7.10;5.60;;;17.10;51.70;;;;;;5032253;28;20979;-47
2023/05/28 04:57:15;;;;;;;9.13;5.10;;;17.00;51.90;;;;;;5031498;28;20435;-49
2023/05/28 04:59:41;;;;;;;7.10;5.33;;;17.10;52.00;;;;;;5032018;28;20202;-47
2023/05/28 05:02:07;;;;;;;12.80;5.60;;;17.20;51.80;;;;;;5030692;28;20474;-49
2023/05/28 05:04:32;;;;;;;8.00;5.50;;;17.20;51.70;;;;;;5032178;28;20258;-49
2023/05/28 05:06:58;;;;;;;5.50;4.53;;;17.30;51.80;;;;;;5045646;28;20239;-47
2023/05/28 05:09:24;;;;;;;8.83;6.47;;;17.40;51.50;;;;;;5043958;28;20225;-51
2023/05/28 05:11:50;;;;;;;7.00;5.57;;;17.60;51.40;;;;;;5031894;28;20194;-53
2023/05/28 05:14:15;;;;;;;8.70;5.83;;;17.50;51.70;;;;;;5031810;28;20258;-50
2023/05/28 05:16:41;;;;;;;8.20;6.10;;;17.60;51.50;;;;;;5031257;28;20922;-49
2023/05/28 05:19:07;;;;;;;6.80;6.03;;;17.70;51.20;;;;;;5031701;28;20208;-48
2023/05/28 05:21:32;;;;;;;8.03;5.60;;;17.90;51.10;;;;;;5031652;28;20270;-49
2023/05/28 05:23:58;;;;;;;10.47;5.17;;;18.00;50.90;;;;;;5031721;28;20335;-49
2023/05/28 05:26:24;;;;;;;7.93;5.70;;;18.10;50.80;;;;;;5031403;28;20292;-49
2023/05/28 05:28:50;;;;;;;8.73;5.60;;;18.20;50.80;;;;;;5029958;28;20190;-48
2023/05/28 05:31:15;;;;;;;7.30;5.67;;;18.30;50.60;;;;;;5031527;28;20648;-49
2023/05/28 05:33:41;;;;;;;6.33;4.50;;;18.40;50.40;;;;;;5031467;28;20494;-50
2023/05/28 05:36:08;;;;;;;10.93;6.47;;;18.50;50.20;;;;;;5031196;28;20221;-49
2023/05/28 05:38:34;;;;;;;10.57;5.87;;;18.50;50.00;;;;;;5031523;28;20181;-51
2023/05/28 05:41:00;;;;;;;10.50;5.97;;;18.60;50.00;;;;;;5031321;28;20428;-47
2023/05/28 05:43:26;;;;;;;8.60;5.73;;;18.60;49.80;;;;;;5031354;28;20209;-47
2023/05/28 05:45:52;;;;;;;11.23;6.50;;;18.70;49.60;;;;;;5031109;28;20507;-48
2023/05/28 05:48:17;;;;;;;8.80;5.57;;;18.80;49.40;;;;;;5031676;28;20208;-50
2023/05/28 05:50:50;;;;;;;7.77;5.00;;;18.90;49.40;;;;;;5031248;28;20676;-48
2023/05/28 05:53:17;;;;;;;7.33;5.80;;;19.00;49.20;;;;;;5038754;28;20195;-48
2023/05/28 05:55:43;;;;;;;8.30;5.73;;;19.10;49.30;;;;;;5047535;28;20486;-47
2023/05/28 05:58:08;;;;;;;6.60;4.93;;;19.20;49.30;;;;;;5031347;28;20977;-48
2023/05/28 06:00:34;;;;;;;8.17;5.33;;;19.30;49.50;;;;;;5031195;28;20424;-48
2023/05/28 06:03:00;;;;;;;9.13;5.23;;;19.40;49.60;;;;;;5031198;28;20196;-47
2023/05/28 06:05:26;;;;;;;8.40;5.73;;;19.60;49.50;;;;;;5036123;28;20606;-48
2023/05/28 06:07:52;;;;;;;9.40;4.80;;;19.70;49.20;;;;;;5055229;28;20678;-48
2023/05/28 06:10:18;;;;;;;7.50;5.13;;;19.80;48.70;;;;;;5039707;28;20431;-49
2023/05/28 06:12:43;;;;;;;11.13;5.30;;;19.90;48.10;;;;;;5035224;28;20941;-49
2023/05/28 06:15:09;;;;;;;7.87;5.47;;;20.00;48.20;;;;;;5034437;28;20247;-50
2023/05/28 06:17:35;;;;;;;7.50;5.90;;;20.10;48.20;;;;;;5035107;28;20198;-49
2023/05/28 06:20:01;;;;;;;6.63;5.33;;;20.20;48.00;;;;;;5034948;28;20420;-53
2023/05/28 06:22:27;;;;;;;6.90;5.80;;;20.30;48.30;;;;;;5033572;28;20204;-49
2023/05/28 06:24:54;;;;;;;6.10;4.60;;;20.40;48.70;;;;;;5034501;28;20193;-48
2023/05/28 06:27:20;;;;;;;11.03;5.77;;;20.50;48.60;;;;;;5035209;28;20331;-51
2023/05/28 06:29:46;;;;;;;7.87;5.80;;;20.60;48.30;;;;;;5034920;28;20453;-48
2023/05/28 06:32:13;;;;;;;8.30;5.33;;;20.80;47.50;;;;;;5034655;28;20514;-50
2023/05/28 06:34:38;;;;;;;6.00;5.40;;;20.90;47.00;;;;;;5033477;28;20253;-49
2023/05/28 06:37:04;;;;;;;8.00;5.13;;;21.10;46.50;;;;;;5034458;28;20529;-49
2023/05/28 06:39:30;;;;;;;9.07;4.90;;;21.20;46.20;;;;;;5034869;28;20560;-52
2023/05/28 06:41:56;;;;;;;5.90;4.90;;;21.30;45.40;;;;;;5034506;28;20507;-48
2023/05/28 06:44:21;;;;;;;7.57;5.10;;;21.50;45.30;;;;;;5034620;28;20255;-51
2023/05/28 06:46:47;;;;;;;8.20;6.37;;;21.60;45.30;;;;;;5034148;28;20680;-52
2023/05/28 06:49:13;;;;;;;7.60;5.33;;;21.80;45.40;;;;;;5032852;28;20551;-50
2023/05/28 06:51:38;;;;;;;7.50;5.70;;;22.00;44.90;;;;;;5034476;28;20552;-52
2023/05/28 06:54:04;;;;;;;10.03;5.90;;;22.20;44.80;;;;;;5048242;28;20231;-48
2023/05/28 06:56:35;;;;;;;8.57;6.10;;;22.30;43.80;;;;;;5045831;28;20722;-52
2023/05/28 06:59:01;;;;;;;7.53;5.73;;;22.50;44.20;;;;;;5034172;28;20192;-48
2023/05/28 07:01:26;;;;;;;7.03;5.70;;;22.60;44.10;;;;;;5034529;28;20412;-52
2023/05/28 07:03:52;;;;;;;7.00;4.53;;;22.70;43.70;;;;;;5034322;28;20200;-52
2023/05/28 07:06:18;;;;;;;8.73;5.50;;;22.80;43.60;;;;;;5042513;28;20235;-50
2023/05/28 07:08:44;;;;;;;9.10;5.80;;;22.90;43.50;;;;;;5051697;28;20283;-52
2023/05/28 07:11:13;;;;;;;7.43;5.40;;;23.10;42.80;;;;;;5034040;28;20436;-49
2023/05/28 07:13:39;;;;;;;8.50;5.97;;;23.30;42.20;;;;;;5033858;28;20443;-51
2023/05/28 07:16:06;;;;;;;8.63;5.33;;;23.40;41.40;;;;;;5031474;28;20932;-52
2023/05/28 07:18:32;;;;;;;9.60;5.77;;;23.60;40.80;;;;;;5034014;28;20796;-52
2023/05/28 07:20:58;;;;;;;8.73;5.77;;;23.70;40.10;;;;;;5033894;28;20420;-51
2023/05/28 07:23:23;;;;;;;12.30;5.73;;;23.80;40.80;;;;;;5033786;28;20916;-52
2023/05/28 07:25:49;;;;;;;7.30;5.03;;;24.00;40.50;;;;;;5033573;28;20551;-51
2023/05/28 07:28:15;;;;;;;9.33;5.00;;;24.10;39.20;;;;;;5033647;28;20242;-51
2023/05/28 07:30:41;;;;;;;10.00;7.57;;;24.20;39.00;;;;;;5033597;28;20504;-51
2023/05/28 07:33:07;;;;;;;9.57;6.33;;;24.30;39.50;;;;;;5033415;28;20462;-52
2023/05/28 07:35:33;;;;;;;7.10;5.07;;;24.40;39.10;;;;;;5033140;28;20514;-52
2023/05/28 07:38:00;;;;;;;6.00;5.00;;;24.60;39.30;;;;;;5033380;28;20424;-50
2023/05/28 07:40:26;;;;;;;5.57;5.03;;;24.60;39.00;;;;;;5033614;28;20197;-53
2023/05/28 07:42:51;;;;;;;11.30;6.30;;;24.90;39.50;;;;;;5031826;28;20434;-51
2023/05/28 07:45:17;;;;;;;7.70;5.70;;;25.10;38.60;;;;;;5033169;28;20228;-52
2023/05/28 07:47:42;;;;;;;9.57;5.50;;;25.20;38.40;;;;;;5033329;28;20596;-51
2023/05/28 07:50:09;;;;;;;7.03;4.87;;;25.30;38.20;;;;;;5033327;28;20629;-51
2023/05/28 07:52:36;;;;;;;8.40;5.00;;;25.60;37.90;;;;;;5034862;28;20649;-52
2023/05/28 07:55:03;;;;;;;8.03;5.10;;;25.70;37.60;;;;;;5052739;28;20474;-50
2023/05/28 07:57:29;;;;;;;8.23;4.60;;;25.90;36.80;;;;;;5036276;28;20962;-50
2023/05/28 07:59:55;;;;;;;7.83;4.67;;;25.70;35.40;;;;;;5033168;28;20436;-50
2023/05/28 08:02:20;;;;;;;9.60;4.53;;;25.70;35.10;;;;;;5033350;28;20482;-51
2023/05/28 08:04:49;;;;;;;8.20;4.93;;;25.60;36.00;;;;;;5032383;28;20201;-50
2023/05/28 08:07:15;;;;;;;7.60;4.37;;;25.90;35.90;;;;;;5049483;28;20193;-50
2023/05/28 08:09:43;;;;;;;6.67;4.60;;;26.10;35.40;;;;;;5042182;28;20985;-49
2023/05/28 08:12:09;;;;;;;11.10;5.00;;;26.20;34.90;;;;;;5032773;28;20197;-50
2023/05/28 08:14:35;;;;;;;7.33;4.20;;;26.50;34.60;;;;;;5032621;28;20480;-52
2023/05/28 08:17:01;;;;;;;6.83;4.70;;;26.70;33.80;;;;;;5032740;28;20201;-50
2023/05/28 08:19:26;;;;;;;7.00;4.40;;;26.90;34.10;;;;;;5032857;28;20193;-50
2023/05/28 08:21:52;;;;;;;5.50;3.80;;;27.10;35.20;;;;;;5032816;28;20760;-50
2023/05/28 08:24:18;;;;;;;7.90;4.80;;;27.10;33.20;;;;;;5032788;28;20189;-51
2023/05/28 08:26:44;;;;;;;9.37;4.70;;;27.20;33.00;;;;;;5031537;28;20217;-50
2023/05/28 08:29:10;;;;;;;5.37;4.87;;;27.40;33.80;;;;;;5032524;28;20475;-49
2023/05/28 08:31:35;;;;;;;5.73;4.80;;;27.60;34.30;;;;;;5032604;28;20193;-49
2023/05/28 08:34:01;;;;;;;8.23;4.93;;;27.60;32.60;;;;;;5030804;28;20229;-51
2023/05/28 08:36:27;;;;;;;7.13;5.43;;;27.80;32.40;;;;;;5031955;28;20545;-50
2023/05/28 08:38:53;;;;;;;8.80;4.87;;;28.00;32.60;;;;;;5032625;28;20189;-50
2023/05/28 08:41:19;;;;;;;6.53;4.80;;;28.20;32.50;;;;;;5032489;28;20578;-51
2023/05/28 08:43:45;;;;;;;6.07;4.87;;;28.30;33.30;;;;;;5032406;28;20197;-49
2023/05/28 08:46:11;;;;;;;8.17;5.70;;;28.40;32.00;;;;;;5031898;28;20995;-52
2023/05/28 08:48:39;;;;;;;8.33;5.30;;;28.40;32.20;;;;;;5032305;28;20408;-52
2023/05/28 08:51:06;;;;;;;6.70;4.63;;;28.60;31.70;;;;;;5032287;28;20194;-52
2023/05/28 08:53:38;;;;;;;10.63;5.30;;;28.60;31.00;;;;;;5041087;28;20431;-49
2023/05/28 08:56:05;;;;;;;4.90;4.07;;;28.60;30.70;;;;;;5034684;28;20438;-49
2023/05/28 08:58:30;;;;;;;6.30;4.43;;;28.30;31.80;;;;;;5032200;28;20793;-51
2023/05/28 09:00:56;;;;;;;7.00;5.33;;;28.60;31.90;;;;;;5030271;28;20425;-50
2023/05/28 09:03:21;;;;;;;5.93;4.43;;;28.90;31.50;;;;;;5032125;28;20196;-49
2023/05/28 09:05:47;;;;;;;10.90;5.30;;;29.10;31.60;;;;;;5035947;28;20679;-49
2023/05/28 09:08:13;;;;;;;5.30;4.40;;;29.30;31.50;;;;;;5051871;28;20703;-48
2023/05/28 09:10:40;;;;;;;7.10;5.13;;;29.40;32.10;;;;;;5033510;28;20197;-48
2023/05/28 09:13:06;;;;;;;8.57;4.47;;;29.50;31.90;;;;;;5030760;28;20416;-51
2023/05/28 09:15:34;;;;;;;9.73;5.03;;;29.70;32.10;;;;;;5031478;28;20479;-50
2023/05/28 09:18:01;;;;;;;9.90;4.93;;;29.90;31.50;;;;;;5031643;28;20435;-50
2023/05/28 09:20:27;;;;;;;7.97;5.13;;;30.10;31.20;;;;;;5031466;28;20456;-52
2023/05/28 09:23:04;;;;;;;8.13;4.90;;;30.00;30.40;;;;;;5031843;28;20424;-49
2023/05/28 09:25:34;;;;;;;7.10;4.80;;;30.20;30.60;;;;;;5037888;28;20433;-51
2023/05/28 09:28:00;;;;;;;9.40;5.30;;;30.40;31.00;;;;;;5049813;28;20458;-52
2023/05/28 09:30:26;;;;;;;6.87;3.77;;;30.60;31.80;;;;;;5051572;28;20423;-50
2023/05/28 09:33:05;;;;;;;7.47;4.67;;;30.90;30.50;;;;;;5051388;28;20431;-52
2023/05/28 09:35:32;;;;;;;11.90;4.80;;;31.00;29.00;;;;;;5051098;28;20479;-50
2023/05/28 09:38:10;;;;;;;6.37;4.73;;;31.00;29.10;;;;;;5051126;28;20530;-50
2023/05/28 09:40:40;;;;;;;6.47;4.63;;;31.20;29.20;;;;;;5051446;28;20968;-50
2023/05/28 09:43:07;;;;;;;6.70;5.07;;;31.30;28.40;;;;;;5051178;28;20431;-54
2023/05/28 09:45:34;;;;;;;7.20;4.20;;;31.20;28.60;;;;;;5050826;28;20430;-52
2023/05/28 09:47:59;;;;;;;4.60;4.13;;;31.00;28.50;;;;;;5051187;28;20871;-51
2023/05/28 09:50:25;;;;;;;7.50;4.50;;;31.10;28.60;;;;;;5051281;28;20578;-50
2023/05/28 09:52:55;;;;;;;5.53;4.50;;;31.00;28.00;;;;;;5047484;28;20649;-49
2023/05/28 09:55:26;;;;;;;4.30;3.90;;;31.20;28.30;;;;;;5029342;28;20320;-49
2023/05/28 09:58:05;;;;;;;8.10;4.80;;;31.10;27.70;;;;;;5031460;28;20424;-51
2023/05/28 10:00:38;;;;;;;10.90;4.80;;;30.90;27.90;;;;;;5031181;28;20459;-50
2023/05/28 10:03:22;;;;;;;8.07;4.87;;;30.80;28.30;;;;;;5031244;28;20494;-51
2023/05/28 10:05:52;;;;;;;8.00;5.00;;;31.00;28.30;;;;;;5035334;28;20493;-52
2023/05/28 10:08:21;;;;;;;6.23;4.53;;;31.20;27.80;;;;;;5051393;28;20439;-51
2023/05/28 10:10:52;;;;;;;6.90;4.13;;;31.50;27.70;;;;;;5031925;28;20435;-51
2023/05/28 10:13:18;;;;;;;8.53;5.17;;;31.50;27.40;;;;;;5031331;28;20443;-52
2023/05/28 10:15:45;;;;;;;8.40;4.93;;;31.00;27.90;;;;;;5030813;28;20479;-52
2023/05/28 10:18:14;;;;;;;6.97;5.07;;;30.90;29.50;;;;;;5031226;28;20193;-51
2023/05/28 10:20:40;;;;;;;7.60;4.63;;;31.10;29.40;;;;;;5035980;28;20433;-50
2023/05/28 10:23:07;;;;;;;6.83;4.77;;;31.50;27.70;;;;;;5051006;28;20427;-51
2023/05/28 10:25:33;;;;;;;7.97;5.30;;;31.60;27.90;;;;;;5050665;28;20419;-52
2023/05/28 10:28:03;;;;;;;6.30;4.33;;;31.50;27.40;;;;;;5051101;28;20464;-52
2023/05/28 10:30:36;;;;;;;5.67;4.50;;;31.80;27.80;;;;;;5051105;28;20432;-54
2023/05/28 10:33:11;;;;;;;7.27;5.10;;;32.20;26.90;;;;;;5050893;28;20960;-52
2023/05/28 10:35:50;;;;;;;7.50;4.13;;;32.50;27.30;;;;;;5051027;28;20803;-50
2023/05/28 10:38:16;;;;;;;9.20;5.30;;;32.90;28.10;;;;;;5050955;28;20793;-52
2023/05/28 10:40:42;;;;;;;8.30;4.43;;;33.10;27.60;;;;;;5050895;28;20414;-52
2023/05/28 10:43:45;;;;;;;4.43;3.80;;;33.30;26.40;;;;;;5050892;28;20192;-49
2023/05/28 10:46:34;;;;;;;5.70;4.37;;;33.50;25.00;;;;;;5049159;28;20201;-53
2023/05/28 10:49:16;;;;;;;7.47;4.30;;;33.10;25.50;;;;;;5050981;28;20435;-52
2023/05/28 10:51:56;;;;;;;6.53;4.43;;;33.00;25.90;;;;;;5054796;28;20435;-53
2023/05/28 10:54:24;;;;;;;7.03;4.57;;;33.20;26.60;;;;;;5037673;28;20518;-52
2023/05/28 10:57:12;;;;;;;5.40;3.67;;;33.00;25.30;;;;;;5034602;28;21009;-50
2023/05/28 11:00:00;;;;;;;7.90;4.70;;;33.20;25.60;;;;;;5041215;28;20926;-53
2023/05/28 11:02:28;;;;;;;5.80;3.73;;;33.70;24.40;;;;;;5054369;28;20447;-52
2023/05/28 11:05:01;;;;;;;5.57;4.23;;;33.80;24.50;;;;;;5053756;28;20538;-52
2023/05/28 11:07:35;;;;;;;5.87;4.60;;;33.30;24.30;;;;;;5054022;28;20439;-53
2023/05/28 11:10:02;;;;;;;7.70;4.90;;;33.10;24.20;;;;;;5041579;28;20447;-52
2023/05/28 11:12:30;;;;;;;7.40;4.80;;;33.30;24.10;;;;;;5033939;28;20436;-53
2023/05/28 11:14:56;;;;;;;6.57;4.70;;;33.30;24.20;;;;;;5032806;28;20533;-52
2023/05/28 11:17:22;;;;;;;6.23;3.90;;;33.60;23.90;;;;;;5034206;28;20503;-53
2023/05/28 11:19:50;;;;;;;6.37;4.37;;;33.80;23.80;;;;;;5034123;28;20417;-53
2023/05/28 11:22:17;;;;;;;6.37;4.90;;;33.90;23.00;;;;;;5034222;28;20420;-52
2023/05/28 11:25:09;;;;;;;6.73;4.60;;;34.10;23.00;;;;;;5033648;28;21007;-52
2023/05/28 11:27:36;;;;;;;5.80;4.60;;;34.20;21.90;;;;;;5031319;28;20451;-50
2023/05/28 11:30:17;;;;;;;4.53;4.13;;;33.80;22.20;;;;;;5033989;28;20432;-50
2023/05/28 11:32:44;;;;;;;6.43;4.60;;;33.70;21.80;;;;;;5037935;28;20550;-52
2023/05/28 11:35:12;;;;;;;6.37;4.97;;;33.60;21.90;;;;;;5046707;28;20541;-49
2023/05/28 11:37:39;;;;;;;5.93;4.43;;;32.70;23.70;;;;;;5033834;28;20420;-51
2023/05/28 11:40:09;;;;;;;5.80;4.17;;;32.30;24.30;;;;;;5032277;28;20550;-53
2023/05/28 11:42:35;;;;;;;7.60;5.00;;;32.60;24.60;;;;;;5033774;28;20440;-51
2023/05/28 11:45:01;;;;;;;4.80;4.20;;;33.20;24.80;;;;;;5033291;28;20518;-50
2023/05/28 11:47:27;;;;;;;5.87;4.97;;;33.70;23.20;;;;;;5033646;28;20911;-50
2023/05/28 11:49:52;;;;;;;7.10;4.87;;;34.00;24.00;;;;;;5033674;28;20193;-50
2023/05/28 11:52:23;;;;;;;7.37;4.57;;;34.30;23.70;;;;;;5033522;28;20276;-50
2023/05/28 11:54:57;;;;;;;5.50;4.43;;;34.60;24.70;;;;;;5052862;28;20219;-51
2023/05/28 11:57:25;;;;;;;8.33;4.93;;;34.60;23.00;;;;;;5037032;28;20490;-50
2023/05/28 12:00:00;;;;;;;6.80;5.30;;;34.40;22.90;;;;;;5033495;28;20508;-52
2023/05/28 12:02:26;;;;;;;6.33;4.60;;;34.40;22.20;;;;;;5031940;28;20800;-52
2023/05/28 12:04:59;;;;;;;6.70;4.13;;;34.60;22.30;;;;;;5032803;28;20423;-51
2023/05/28 12:07:33;;;;;;;6.57;4.70;;;34.90;22.60;;;;;;5050164;28;20415;-52
2023/05/28 12:10:06;;;;;;;7.40;4.07;;;35.10;21.80;;;;;;5040775;28;20448;-49
2023/05/28 12:12:33;;;;;;;5.90;4.67;;;34.90;21.80;;;;;;5039602;28;20439;-52
2023/05/28 12:15:02;;;;;;;8.33;4.90;;;34.50;21.60;;;;;;5052576;28;20537;-51
2023/05/28 12:17:36;;;;;;;5.43;4.33;;;34.60;21.80;;;;;;5052962;28;20435;-50
2023/05/28 12:20:07;;;;;;;5.20;4.40;;;34.20;22.50;;;;;;5052656;28;20500;-53
2023/05/28 12:22:33;;;;;;;5.30;4.37;;;34.30;22.20;;;;;;5052828;28;20518;-51
2023/05/28 12:24:58;;;;;;;5.27;4.00;;;34.60;22.20;;;;;;5052475;28;20525;-51
2023/05/28 12:27:24;;;;;;;5.63;4.07;;;34.40;21.70;;;;;;5052897;28;20199;-50
2023/05/28 12:29:50;;;;;;;7.57;4.43;;;34.60;21.60;;;;;;5052814;28;20276;-51
2023/05/28 12:32:16;;;;;;;5.10;4.60;;;34.80;20.60;;;;;;5050989;28;20242;-52
2023/05/28 12:34:41;;;;;;;5.77;4.80;;;34.80;20.80;;;;;;5052248;28;20744;-51
2023/05/28 12:37:08;;;;;;;7.63;4.90;;;34.70;20.80;;;;;;5052676;28;20778;-53
2023/05/28 12:39:35;;;;;;;5.00;4.30;;;34.60;21.00;;;;;;5052596;28;20245;-51
2023/05/28 12:42:01;;;;;;;4.77;4.00;;;34.60;20.40;;;;;;5052474;28;20435;-53
2023/05/28 12:44:27;;;;;;;5.10;4.40;;;34.50;21.10;;;;;;5050063;28;20812;-53
2023/05/28 12:46:52;;;;;;;4.80;4.20;;;34.50;22.80;;;;;;5032534;28;20324;-51